Time;durP1;ratioP1;P1;durP2;ratioP2;P2;SDS_P1;SDS_P2;PMS_P1;PMS_P2;Temp;Humidity;BMP_temperature;BMP_pressure;BME280_temperature;BME280_humidity;BME280_pressure;Samples;Min_cycle;Max_cycle;Signal;HPM_P1;HPM_P2
2023/03/28 00:00:29;;;;;;;5.95;4.10;;;;;;;2.79;71.02;97355.75;6157615;23;20024;-80
2023/03/28 00:02:56;;;;;;;7.20;4.00;;;;;;;2.73;70.61;97353.63;6155901;23;20021;-80
2023/03/28 00:05:26;;;;;;;6.88;3.90;;;;;;;2.68;71.34;97364.28;6157156;23;20060;-80
2023/03/28 00:07:55;;;;;;;6.95;3.72;;;;;;;2.64;71.25;97356.88;6156848;23;20017;-80
2023/03/28 00:10:23;;;;;;;6.35;3.67;;;;;;;2.55;70.75;97360.97;6156829;23;20026;-79
2023/03/28 00:12:51;;;;;;;4.35;3.65;;;;;;;2.46;70.37;97362.44;6155653;23;20018;-80
2023/03/28 00:15:18;;;;;;;6.20;4.00;;;;;;;2.43;70.90;97361.88;6156952;23;20092;-80
2023/03/28 00:17:46;;;;;;;4.35;3.30;;;;;;;2.44;71.97;97366.88;6156753;23;20459;-80
2023/03/28 00:20:14;;;;;;;5.07;3.70;;;;;;;2.48;72.31;97370.88;6156918;23;20096;-80
2023/03/28 00:22:43;;;;;;;6.43;3.70;;;;;;;2.47;72.21;97379.56;6155795;23;20435;-80
2023/03/28 00:25:12;;;;;;;6.50;3.40;;;;;;;2.50;71.56;97375.13;6156731;23;20036;-80
2023/03/28 00:27:39;;;;;;;5.90;3.40;;;;;;;2.49;70.99;97376.84;6156611;23;20044;-80
2023/03/28 00:30:08;;;;;;;4.57;3.55;;;;;;;2.53;72.35;97378.28;6156279;23;20095;-80
2023/03/28 00:32:36;;;;;;;4.63;3.30;;;;;;;2.55;70.93;97376.41;6156272;23;20490;-80
2023/03/28 00:35:04;;;;;;;6.85;3.22;;;;;;;2.55;71.31;97380.75;6156188;23;20024;-79
2023/03/28 00:37:32;;;;;;;7.63;3.65;;;;;;;2.56;70.43;97387.53;6156411;23;20022;-80
2023/03/28 00:40:06;;;;;;;5.57;3.47;;;;;;;2.47;70.43;97384.72;6156334;23;20022;-80
2023/03/28 00:42:34;;;;;;;5.45;3.58;;;;;;;2.41;70.56;97392.88;6156515;23;20021;-79
2023/03/28 00:45:01;;;;;;;5.43;3.70;;;;;;;2.37;71.95;97394.03;6156405;23;20028;-80
2023/03/28 00:47:37;;;;;;;6.15;3.80;;;;;;;2.43;72.64;97392.78;6156519;23;20017;-80
2023/03/28 00:50:09;;;;;;;4.47;3.40;;;;;;;2.47;73.32;97389.88;6156495;23;20355;-80
2023/03/28 00:52:41;;;;;;;5.72;3.28;;;;;;;2.48;72.13;97398.41;6156586;23;20025;-80
2023/03/28 00:55:16;;;;;;;6.72;3.53;;;;;;;2.37;71.46;97401.75;6156642;23;20026;-80
2023/03/28 00:57:47;;;;;;;5.68;3.85;;;;;;;2.31;70.54;97414.25;6156707;23;20406;-80
2023/03/28 01:00:17;;;;;;;6.72;4.10;;;;;;;2.27;71.42;97408.47;6157246;23;20029;-80
2023/03/28 01:02:51;;;;;;;5.55;3.75;;;;;;;2.24;71.32;97413.88;6155780;23;20017;-80
2023/03/28 01:05:23;;;;;;;5.32;3.28;;;;;;;2.23;71.31;97412.19;6156374;23;20028;-79
2023/03/28 01:07:53;;;;;;;5.83;3.97;;;;;;;2.22;71.39;97410.56;6156079;23;20026;-80
2023/03/28 01:10:24;;;;;;;5.72;3.75;;;;;;;2.25;72.78;97415.50;6158231;23;20021;-79
2023/03/28 01:12:54;;;;;;;4.72;3.45;;;;;;;2.27;71.63;97418.78;6158936;23;20052;-80
2023/03/28 01:15:22;;;;;;;4.35;3.78;;;;;;;2.28;72.24;97415.28;6158845;23;20406;-78
2023/03/28 01:17:50;;;;;;;5.75;3.65;;;;;;;2.21;71.23;97408.94;6158870;23;20080;-80
2023/03/28 01:20:34;;;;;;;4.30;3.42;;;;;;;2.13;70.71;97413.81;6159738;23;20100;-80
2023/03/28 01:23:34;;;;;;;3.95;3.15;;;;;;;2.08;70.04;97419.28;6180425;23;20014;-78
2023/03/28 01:26:38;;;;;;;5.00;3.75;;;;;;;1.99;70.06;97425.91;6182318;23;20077;-78
2023/03/28 01:29:32;;;;;;;7.82;3.63;;;;;;;2.02;72.76;97424.88;6161443;23;20061;-80
2023/03/28 01:32:43;;;;;;;7.53;3.95;;;;;;;2.07;73.23;97427.91;6159965;23;20017;-78
2023/03/28 01:35:39;;;;;;;6.28;3.75;;;;;;;2.01;70.66;97423.19;6110863;23;20026;-80
2023/03/28 01:38:14;;;;;;;5.25;3.47;;;;;;;2.00;73.10;97422.38;6159419;23;20108;-79
2023/03/28 01:40:51;;;;;;;6.32;3.63;;;;;;;2.07;73.29;97435.66;6160175;23;20368;-80
2023/03/28 01:43:34;;;;;;;9.27;4.07;;;;;;;2.08;72.58;97429.59;6159237;23;20349;-80
2023/03/28 01:46:06;;;;;;;;;;;;;;;2.12;72.40;97435.31;6159411;23;20036;-80
2023/03/28 01:48:43;;;;;;;4.03;3.15;;;;;;;2.03;70.79;97437.63;6158894;23;20227;-80
2023/03/28 01:51:22;;;;;;;6.70;3.47;;;;;;;1.98;73.46;97431.97;6158336;23;20013;-80
2023/03/28 01:53:59;;;;;;;6.57;3.58;;;;;;;2.03;73.43;97440.19;6158523;23;20043;-80
2023/03/28 01:56:34;;;;;;;4.43;3.53;;;;;;;2.06;72.51;97434.81;6158141;23;20026;-80
2023/03/28 01:59:09;;;;;;;6.30;4.18;;;;;;;2.05;72.46;97435.75;6158072;23;20022;-79
2023/03/28 02:01:45;;;;;;;4.90;3.78;;;;;;;2.02;72.91;97445.44;6157731;23;20023;-80
2023/03/28 02:04:19;;;;;;;9.25;4.32;;;;;;;1.99;72.04;97437.94;6158230;23;20056;-79
2023/03/28 02:06:51;;;;;;;5.03;3.58;;;;;;;1.99;72.37;97446.50;6158419;23;20021;-80
2023/03/28 02:09:23;;;;;;;7.88;3.97;;;;;;;1.96;71.99;97436.41;6158090;23;20100;-80
2023/03/28 02:11:57;;;;;;;4.28;3.35;;;;;;;1.96;72.03;97436.41;6157260;23;20474;-80
2023/03/28 02:14:27;;;;;;;6.38;4.20;;;;;;;1.92;71.46;97440.09;6158023;23;20022;-80
2023/03/28 02:17:03;;;;;;;7.68;3.85;;;;;;;1.88;72.02;97448.16;6158394;23;20028;-80
2023/03/28 02:19:34;;;;;;;7.70;4.13;;;;;;;1.85;71.71;97449.19;6158340;23;20079;-80
2023/03/28 02:22:10;;;;;;;6.75;3.83;;;;;;;1.85;71.52;97449.19;6157962;23;20400;-79
2023/03/28 02:24:39;;;;;;;6.18;4.22;;;;;;;1.87;74.02;97460.19;6157774;23;20021;-79
2023/03/28 02:27:07;;;;;;;7.72;3.70;;;;;;;1.94;73.26;97453.69;6157820;23;20021;-80
2023/03/28 02:29:37;;;;;;;6.65;3.90;;;;;;;1.98;73.02;97454.31;6157672;23;20013;-80
2023/03/28 02:32:05;;;;;;;6.68;4.03;;;;;;;2.00;73.58;97448.13;6157002;23;20092;-80
2023/03/28 02:34:33;;;;;;;7.05;4.00;;;;;;;1.99;72.49;97450.78;6157683;23;20521;-80
2023/03/28 02:37:12;;;;;;;7.30;3.70;;;;;;;1.97;72.10;97447.53;6157965;23;20096;-80
2023/03/28 02:39:56;;;;;;;5.25;3.90;;;;;;;1.93;72.05;97446.09;6157521;23;20392;-79
2023/03/28 02:43:01;;;;;;;7.00;4.20;;;;;;;1.96;73.37;97449.25;6157747;23;20032;-79
2023/03/28 02:45:47;;;;;;;7.55;4.07;;;;;;;2.01;71.88;97444.63;6158492;23;20059;-80
2023/03/28 02:48:26;;;;;;;5.85;3.85;;;;;;;1.98;71.52;97444.84;6157470;23;20072;-79
2023/03/28 02:51:09;;;;;;;9.57;4.30;;;;;;;1.91;70.47;97442.81;6157898;23;20024;-80
2023/03/28 02:53:47;;;;;;;6.95;3.80;;;;;;;1.86;72.86;97440.56;6157425;23;20018;-80
2023/03/28 02:56:21;;;;;;;7.28;3.95;;;;;;;1.89;73.57;97452.38;6157407;23;20025;-79
2023/03/28 02:58:54;;;;;;;8.10;3.67;;;;;;;1.91;72.70;97451.34;6157315;23;20475;-80
2023/03/28 03:01:24;;;;;;;;;;;;;;;1.95;73.33;97447.63;6157714;23;20032;-80
2023/03/28 03:03:51;;;;;;;8.38;3.85;;;;;;;2.00;72.67;97452.44;6157057;23;19917;-79
2023/03/28 03:06:22;;;;;;;6.93;3.35;;;;;;;1.99;72.93;97456.78;6157756;23;20033;-80
2023/03/28 03:08:50;;;;;;;4.88;4.25;;;;;;;1.97;72.40;97455.25;6157933;23;20380;-80
2023/03/28 03:11:20;;;;;;;5.65;3.47;;;;;;;1.95;72.28;97463.06;6157147;23;20068;-79
2023/03/28 03:13:47;;;;;;;7.25;4.03;;;;;;;1.93;72.07;97470.06;6157778;23;20057;-80
2023/03/28 03:16:15;;;;;;;6.65;3.72;;;;;;;1.86;71.28;97461.13;6156847;23;20063;-80
2023/03/28 03:18:42;;;;;;;6.65;4.10;;;;;;;1.82;72.19;97470.81;6156145;23;20092;-80
2023/03/28 03:21:10;;;;;;;9.93;4.00;;;;;;;1.80;71.79;97462.38;6155906;23;20105;-80
2023/03/28 03:23:38;;;;;;;8.63;4.35;;;;;;;1.78;71.58;97463.41;6156467;23;20022;-80
2023/03/28 03:26:06;;;;;;;6.97;4.22;;;;;;;1.78;72.24;97461.66;6155428;23;20017;-80
2023/03/28 03:28:35;;;;;;;6.45;3.90;;;;;;;1.82;71.98;97467.41;6156101;23;20021;-80
2023/03/28 03:31:02;;;;;;;4.93;3.72;;;;;;;1.81;71.80;97458.03;6155171;23;20048;-80
2023/03/28 03:33:30;;;;;;;6.55;3.58;;;;;;;1.79;70.91;97459.91;6156775;23;20104;-80
2023/03/28 03:35:59;;;;;;;9.25;3.42;;;;;;;1.77;71.20;97460.03;6157596;23;20033;-80
2023/03/28 03:38:27;;;;;;;6.15;4.53;;;;;;;1.75;70.54;97458.47;6157357;23;20081;-80
2023/03/28 03:40:54;;;;;;;7.50;4.18;;;;;;;1.82;72.72;97464.84;6157425;23;20021;-80
2023/03/28 03:43:22;;;;;;;6.43;4.20;;;;;;;1.92;73.46;97465.84;6157281;23;20096;-79
2023/03/28 03:45:51;;;;;;;5.60;3.45;;;;;;;1.92;72.97;97465.03;6156697;23;20497;-80
2023/03/28 03:48:19;;;;;;;5.38;3.50;;;;;;;1.93;72.65;97461.53;6156703;23;20057;-80
2023/03/28 03:50:46;;;;;;;7.53;3.85;;;;;;;1.90;72.31;97462.53;6156811;23;20017;-80
2023/03/28 03:53:14;;;;;;;6.13;3.92;;;;;;;1.94;71.73;97458.03;6156201;23;20490;-79
2023/03/28 03:55:42;;;;;;;7.93;4.00;;;;;;;1.93;71.15;97470.06;6156701;23;20466;-80
2023/03/28 03:58:09;;;;;;;8.88;4.85;;;;;;;1.91;71.02;97464.22;6156720;23;20017;-79
2023/03/28 04:00:37;;;;;;;6.20;3.92;;;;;;;1.88;70.97;97459.28;6156685;23;20021;-80
2023/03/28 04:03:06;;;;;;;6.93;4.00;;;;;;;1.91;70.79;97471.94;6156197;23;20479;-80
2023/03/28 04:05:51;;;;;;;6.72;5.22;;;;;;;1.93;71.59;97466.69;6157368;23;20033;-80
2023/03/28 04:08:19;;;;;;;11.27;6.53;;;;;;;1.91;71.68;97466.78;6157130;23;20057;-80
2023/03/28 04:10:46;;;;;;;11.43;6.50;;;;;;;1.93;71.38;97470.06;6156534;23;20542;-80
2023/03/28 04:13:14;;;;;;;11.13;6.35;;;;;;;2.00;72.65;97466.13;6156030;23;20024;-80
2023/03/28 04:15:42;;;;;;;8.60;6.55;;;;;;;2.09;73.42;97462.09;6157003;23;20025;-80
2023/03/28 04:18:11;;;;;;;7.97;4.97;;;;;;;2.12;71.35;97461.06;6156400;23;20049;-80
2023/03/28 04:20:39;;;;;;;9.48;5.00;;;;;;;2.02;70.13;97459.13;6156548;23;20028;-79
2023/03/28 04:23:07;;;;;;;9.02;4.65;;;;;;;2.01;71.17;97459.22;6156839;23;20030;-80
2023/03/28 04:25:34;;;;;;;7.93;4.40;;;;;;;1.96;70.71;97464.69;6156886;23;20017;-80
2023/03/28 04:28:02;;;;;;;6.25;4.63;;;;;;;1.98;72.94;97468.00;6157030;23;20025;-80
2023/03/28 04:30:30;;;;;;;7.00;5.22;;;;;;;1.99;72.19;97468.81;6158244;23;20025;-79
2023/03/28 04:33:00;;;;;;;20.35;4.95;;;;;;;1.96;71.27;97476.75;6167026;23;20021;-79
2023/03/28 04:35:29;;;;;;;9.05;4.25;;;;;;;1.91;70.28;97479.66;6179680;23;20031;-79
2023/03/28 04:37:57;;;;;;;5.45;4.15;;;;;;;1.86;70.25;97481.72;6174574;23;20033;-80
2023/03/28 04:40:26;;;;;;;7.43;4.47;;;;;;;1.87;71.16;97485.94;6159841;23;20018;-80
2023/03/28 04:42:54;;;;;;;6.72;4.85;;;;;;;1.84;72.03;97483.56;6157269;23;20024;-79
2023/03/28 04:45:25;;;;;;;6.47;4.80;;;;;;;1.81;71.08;97478.63;6158277;23;20097;-80
2023/03/28 04:47:52;;;;;;;6.80;4.97;;;;;;;1.83;72.78;97487.06;6158384;23;20104;-80
2023/03/28 04:50:21;;;;;;;8.75;5.60;;;;;;;1.91;73.90;97499.41;6157407;23;20018;-80
2023/03/28 04:52:50;;;;;;;7.53;4.32;;;;;;;1.93;72.97;97493.22;6156233;23;20105;-78
2023/03/28 04:55:18;;;;;;;7.57;4.40;;;;;;;1.89;71.65;97499.50;6156400;23;20018;-80
2023/03/28 04:57:46;;;;;;;6.35;5.07;;;;;;;1.85;72.23;97496.31;6157051;23;20475;-80
2023/03/28 05:00:15;;;;;;;6.20;4.32;;;;;;;1.86;72.63;97497.16;6156885;23;20355;-80
2023/03/28 05:02:43;;;;;;;10.00;4.45;;;;;;;1.85;71.80;97500.63;6155775;23;20025;-80
2023/03/28 05:05:11;;;;;;;8.13;5.35;;;;;;;1.90;73.11;97516.56;6156847;23;20044;-80
2023/03/28 05:07:39;;;;;;;7.25;4.68;;;;;;;1.95;73.84;97516.28;6156186;23;20073;-79
2023/03/28 05:10:09;;;;;;;7.20;4.63;;;;;;;2.01;72.78;97513.28;6156309;23;20053;-80
2023/03/28 05:12:39;;;;;;;5.97;4.25;;;;;;;2.05;72.91;97520.66;6155868;23;20022;-78
2023/03/28 05:15:07;;;;;;;6.22;4.53;;;;;;;2.10;73.63;97519.53;6155775;23;20021;-78
2023/03/28 05:17:35;;;;;;;7.75;4.80;;;;;;;2.08;71.82;97522.22;6155839;23;20025;-78
2023/03/28 05:20:07;;;;;;;8.57;4.75;;;;;;;1.99;72.07;97521.13;6155457;23;20479;-77
2023/03/28 05:22:35;;;;;;;6.07;4.72;;;;;;;2.00;73.23;97530.47;6158445;23;20026;-79
2023/03/28 05:25:05;;;;;;;6.88;4.55;;;;;;;2.03;72.93;97519.13;6155879;23;20092;-78
2023/03/28 05:27:34;;;;;;;7.65;5.03;;;;;;;2.06;73.22;97527.47;6155865;23;20025;-77
2023/03/28 05:30:03;;;;;;;6.03;4.30;;;;;;;2.02;71.47;97526.03;6155767;23;20073;-78
2023/03/28 05:32:31;;;;;;;7.65;4.57;;;;;;;1.88;70.90;97525.34;6155571;23;20080;-77
2023/03/28 05:34:58;;;;;;;8.85;5.20;;;;;;;1.76;71.15;97535.53;6155959;23;20049;-78
2023/03/28 05:37:26;;;;;;;8.75;5.63;;;;;;;1.72;72.45;97541.00;6155748;23;20104;-77
2023/03/28 05:39:57;;;;;;;6.85;5.15;;;;;;;1.69;72.64;97534.31;6155784;23;20026;-77
2023/03/28 05:42:25;;;;;;;8.23;6.03;;;;;;;1.76;73.85;97537.28;6154932;23;20482;-77
2023/03/28 05:44:54;;;;;;;7.03;4.50;;;;;;;1.87;73.86;97539.94;6155208;23;20498;-78
2023/03/28 05:47:21;;;;;;;9.35;4.93;;;;;;;1.92;71.99;97537.88;6156095;23;20025;-78
2023/03/28 05:49:49;;;;;;;9.02;4.88;;;;;;;1.92;71.72;97543.03;6156505;23;20064;-78
2023/03/28 05:52:16;;;;;;;8.77;4.45;;;;;;;1.94;72.38;97554.03;6171487;23;20033;-78
2023/03/28 05:54:44;;;;;;;7.88;5.18;;;;;;;1.96;72.35;97552.19;6171951;23;20366;-78
2023/03/28 05:57:18;;;;;;;9.38;4.65;;;;;;;2.00;73.37;97545.91;6173797;23;20026;-78
2023/03/28 05:59:47;;;;;;;6.70;4.75;;;;;;;2.09;73.42;97557.31;6166373;23;20088;-78
2023/03/28 06:02:17;;;;;;;8.15;5.43;;;;;;;2.15;74.80;97563.81;6157442;23;20056;-78
2023/03/28 06:04:45;;;;;;;9.75;5.82;;;;;;;2.15;72.06;97563.81;6157288;23;20491;-77
2023/03/28 06:07:13;;;;;;;30.90;18.40;;;;;;;2.11;70.56;97570.09;6157119;23;20098;-78
2023/03/28 06:09:41;;;;;;;27.48;13.68;;;;;;;2.04;70.46;97570.50;6158100;23;20021;-78
2023/03/28 06:12:09;;;;;;;14.25;9.52;;;;;;;1.99;70.08;97577.72;6156510;23;20017;-78
2023/03/28 06:14:37;;;;;;;12.77;8.65;;;;;;;1.94;69.87;97577.19;6157443;23;20025;-78
2023/03/28 06:17:06;;;;;;;12.02;7.00;;;;;;;1.90;69.52;97578.31;6157131;23;20017;-78
2023/03/28 06:19:35;;;;;;;10.15;6.97;;;;;;;1.79;69.16;97585.94;6157549;23;20025;-78
2023/03/28 06:22:03;;;;;;;14.40;6.70;;;;;;;1.68;69.01;97591.00;6156358;23;20069;-77
2023/03/28 06:24:30;;;;;;;20.15;10.70;;;;;;;1.54;69.34;97595.28;6156873;23;20032;-78
2023/03/28 06:26:58;;;;;;;15.43;9.18;;;;;;;1.52;69.76;97592.00;6157083;23;20022;-78
2023/03/28 06:29:26;;;;;;;15.95;9.18;;;;;;;1.53;70.95;97583.38;6156855;23;20358;-78
2023/03/28 06:31:53;;;;;;;17.77;9.80;;;;;;;1.59;71.13;97590.66;6156905;23;20033;-77
2023/03/28 06:34:21;;;;;;;13.85;7.90;;;;;;;1.65;71.98;97590.25;6156612;23;20510;-78
2023/03/28 06:36:50;;;;;;;9.45;6.53;;;;;;;1.74;72.14;97588.00;6156126;23;20024;-78
2023/03/28 06:39:17;;;;;;;8.00;5.85;;;;;;;1.77;71.46;97586.06;6156188;23;20024;-77
2023/03/28 06:41:45;;;;;;;8.57;5.47;;;;;;;1.78;71.34;97586.88;6156350;23;20017;-78
2023/03/28 06:44:13;;;;;;;12.20;7.07;;;;;;;1.78;71.30;97592.03;6156813;23;20029;-78
2023/03/28 06:46:40;;;;;;;11.80;6.22;;;;;;;1.82;72.64;97598.63;6157087;23;20033;-77
2023/03/28 06:49:08;;;;;;;12.88;6.22;;;;;;;1.92;72.19;97597.06;6156452;23;20022;-77
2023/03/28 06:51:35;;;;;;;12.60;5.53;;;;;;;1.97;71.44;97601.94;6156577;23;20021;-77
2023/03/28 06:54:04;;;;;;;9.77;5.38;;;;;;;2.08;72.13;97604.59;6156925;23;20113;-77
2023/03/28 06:56:32;;;;;;;10.20;5.65;;;;;;;2.17;71.88;97610.88;6157019;23;20061;-78
2023/03/28 06:59:00;;;;;;;7.03;4.93;;;;;;;2.21;71.77;97609.72;6156208;23;20072;-77
2023/03/28 07:01:27;;;;;;;8.02;4.78;;;;;;;2.27;71.12;97604.13;6155935;23;20070;-78
2023/03/28 07:03:58;;;;;;;8.73;5.30;;;;;;;2.36;72.35;97613.84;6156958;23;20077;-78
2023/03/28 07:06:26;;;;;;;12.57;5.80;;;;;;;2.40;70.49;97611.84;6156641;23;20101;-78
2023/03/28 07:08:54;;;;;;;9.93;4.90;;;;;;;2.36;69.92;97611.25;6165420;23;20045;-83
2023/03/28 07:11:24;;;;;;;9.98;5.95;;;;;;;2.38;70.04;97616.28;6192357;23;20104;-84
2023/03/28 07:13:52;;;;;;;10.05;5.72;;;;;;;2.44;70.17;97614.09;6193297;23;20017;-85
2023/03/28 07:16:20;;;;;;;12.70;5.15;;;;;;;2.53;70.05;97619.56;6193273;23;20048;-82
2023/03/28 07:18:47;;;;;;;9.13;5.47;;;;;;;2.64;70.34;97632.50;6193090;23;20095;-86
2023/03/28 07:21:17;;;;;;;12.02;5.60;;;;;;;2.76;69.78;97636.81;6192613;23;20024;-85
2023/03/28 07:23:45;;;;;;;9.50;5.22;;;;;;;2.84;69.09;97639.69;6192622;23;20480;-82
2023/03/28 07:26:14;;;;;;;9.70;4.80;;;;;;;2.94;68.15;97639.84;6192219;23;20017;-86
2023/03/28 07:28:43;;;;;;;8.20;4.97;;;;;;;3.01;68.02;97650.56;6192419;23;20362;-86
2023/03/28 07:31:11;;;;;;;9.43;4.68;;;;;;;3.08;67.91;97641.44;6193067;23;20415;-84
2023/03/28 07:33:39;;;;;;;12.07;6.50;;;;;;;3.23;68.96;97649.84;6192195;23;20025;-82
2023/03/28 07:36:09;;;;;;;8.52;6.03;;;;;;;3.37;67.67;97651.41;6188575;23;20025;-81
2023/03/28 07:38:37;;;;;;;9.82;5.25;;;;;;;3.47;67.62;97642.09;6188919;23;20052;-81
2023/03/28 07:41:06;;;;;;;8.75;5.43;;;;;;;3.54;67.32;97651.03;6187670;23;20101;-80
2023/03/28 07:43:34;;;;;;;12.32;6.50;;;;;;;3.63;67.00;97652.09;6188455;23;20021;-80
2023/03/28 07:46:06;;;;;;;11.90;6.65;;;;;;;3.78;67.36;97663.06;6188083;23;20049;-80
2023/03/28 07:48:35;;;;;;;8.70;4.53;;;;;;;3.92;66.39;97662.88;6187351;23;20466;-81
2023/03/28 07:51:05;;;;;;;8.68;5.25;;;;;;;4.04;65.41;97664.53;6187272;23;20065;-81
2023/03/28 07:53:33;;;;;;;8.60;3.80;;;;;;;4.19;66.04;97672.09;6188915;23;20048;-81
2023/03/28 07:56:01;;;;;;;9.30;4.47;;;;;;;4.26;65.06;97675.84;6191558;23;20017;-82
2023/03/28 07:58:29;;;;;;;7.55;3.90;;;;;;;4.39;64.51;97670.56;6191075;23;20048;-87
2023/03/28 08:01:05;;;;;;;7.30;4.03;;;;;;;4.56;65.34;97688.19;6192329;23;20060;-82
2023/03/28 08:03:33;;;;;;;9.20;4.93;;;;;;;4.72;65.90;97680.09;6190684;23;20018;-84
2023/03/28 08:06:04;;;;;;;9.27;4.30;;;;;;;4.84;66.09;97681.72;6190981;23;20025;-79
2023/03/28 08:08:40;;;;;;;9.27;3.97;;;;;;;4.98;63.79;97680.66;6191028;23;20036;-80
2023/03/28 08:11:07;;;;;;;5.88;3.78;;;;;;;5.13;64.73;97686.38;6189777;23;20028;-81
2023/03/28 08:13:35;;;;;;;8.30;3.42;;;;;;;5.27;62.43;97682.69;6190718;23;20154;-81
2023/03/28 08:16:05;;;;;;;8.40;3.50;;;;;;;5.39;61.42;97680.91;6190674;23;20485;-81
2023/03/28 08:18:33;;;;;;;11.07;3.95;;;;;;;5.45;60.22;97688.19;6189532;23;20028;-79
2023/03/28 08:21:02;;;;;;;8.40;4.18;;;;;;;5.52;61.65;97686.75;6189393;23;20056;-81
2023/03/28 08:23:30;;;;;;;8.52;3.63;;;;;;;5.67;60.37;97682.94;6191797;23;20021;-83
2023/03/28 08:26:03;;;;;;;6.25;3.42;;;;;;;5.76;61.83;97691.72;6191257;23;20025;-87
2023/03/28 08:28:32;;;;;;;6.15;3.28;;;;;;;5.90;61.36;97690.59;6190400;23;20024;-83
2023/03/28 08:31:00;;;;;;;8.15;3.30;;;;;;;6.04;59.34;97681.72;6188827;23;20021;-84
2023/03/28 08:33:31;;;;;;;7.88;3.28;;;;;;;6.14;58.21;97683.44;6189375;23;20017;-82
2023/03/28 08:35:59;;;;;;;5.18;3.10;;;;;;;6.21;58.82;97678.56;6189495;23;20096;-81
2023/03/28 08:38:28;;;;;;;7.05;3.00;;;;;;;6.28;57.60;97684.06;6189194;23;20048;-80
2023/03/28 08:41:02;;;;;;;5.28;3.58;;;;;;;6.30;60.20;97692.53;6189487;23;20025;-83
2023/03/28 08:43:50;;;;;;;5.05;3.25;;;;;;;6.35;56.62;97683.41;6189096;23;20028;-83
2023/03/28 08:46:21;;;;;;;4.32;3.20;;;;;;;6.37;59.48;97691.06;6189541;23;20361;-81
2023/03/28 08:48:52;;;;;;;5.82;3.80;;;;;;;6.27;57.58;97687.59;6188861;23;20025;-81
2023/03/28 08:51:26;;;;;;;11.48;4.75;;;;;;;6.16;57.77;97686.69;6189031;23;20021;-80
2023/03/28 08:54:03;;;;;;;7.03;3.10;;;;;;;6.11;58.17;97686.25;6188651;23;20017;-81
2023/03/28 08:56:32;;;;;;;6.65;3.08;;;;;;;6.09;58.09;97695.94;6187879;23;20021;-81
2023/03/28 08:59:05;;;;;;;5.43;2.63;;;;;;;6.04;56.08;97687.72;6187969;23;20024;-80
2023/03/28 09:01:33;;;;;;;7.68;3.67;;;;;;;6.08;59.91;97693.47;6189323;23;20027;-82
2023/03/28 09:04:03;;;;;;;5.28;3.10;;;;;;;6.11;58.13;97694.03;6195791;23;20017;-89
2023/03/28 09:06:38;;;;;;;6.03;1.90;;;;;;;6.11;56.16;97690.63;6195795;23;20075;-86
2023/03/28 09:09:15;;;;;;;5.88;2.88;;;;;;;6.18;55.61;97684.81;6196026;23;20017;-88
2023/03/28 09:11:59;;;;;;;6.60;2.30;;;;;;;6.38;59.37;97682.31;6195746;23;20025;-87
2023/03/28 09:14:54;;;;;;;5.43;1.85;;;;;;;6.60;53.35;97683.91;6196311;23;20031;-83
2023/03/28 09:17:33;;;;;;;6.90;2.08;;;;;;;6.75;55.30;97687.81;6194054;23;20434;-84
2023/03/28 09:20:11;;;;;;;5.25;1.55;;;;;;;6.85;51.45;97682.66;6195745;23;20025;-87
2023/03/28 09:22:51;;;;;;;5.63;2.30;;;;;;;6.93;51.96;97693.22;6194781;23;20021;-86
2023/03/28 09:25:31;;;;;;;2.75;1.42;;;;;;;7.07;52.32;97691.19;6195265;23;20512;-84
2023/03/28 09:28:05;;;;;;;5.68;1.95;;;;;;;7.16;53.13;97686.03;6194406;23;20048;-88
2023/03/28 09:30:37;;;;;;;7.57;1.30;;;;;;;7.26;54.08;97696.44;6197258;23;20049;-86
2023/03/28 09:33:12;;;;;;;2.33;1.17;;;;;;;7.31;49.62;97694.25;6197327;23;20092;-88
2023/03/28 09:35:42;;;;;;;3.13;1.33;;;;;;;7.29;54.71;97690.97;6197197;23;20450;-84
2023/03/28 09:38:17;;;;;;;3.20;1.10;;;;;;;7.23;49.94;97696.69;6196995;23;20421;-84
2023/03/28 09:40:46;;;;;;;5.80;1.90;;;;;;;7.11;51.61;97695.19;6197168;23;20021;-85
2023/03/28 09:43:19;;;;;;;5.38;1.63;;;;;;;7.00;49.93;97686.53;6197081;23;20470;-83
2023/03/28 09:45:53;;;;;;;6.47;2.08;;;;;;;6.98;49.64;97685.84;6197634;23;20417;-87
2023/03/28 09:48:25;;;;;;;3.97;1.70;;;;;;;6.98;51.04;97688.44;6198077;23;20025;-85
2023/03/28 09:50:54;;;;;;;4.53;1.60;;;;;;;7.01;50.24;97688.16;6197504;23;20049;-84
2023/03/28 09:53:25;;;;;;;4.38;1.05;;;;;;;7.08;51.52;97688.47;6197576;23;20080;-84
2023/03/28 09:55:54;;;;;;;5.00;1.20;;;;;;;7.16;49.18;97690.41;6197952;23;20343;-84
2023/03/28 09:58:48;;;;;;;5.90;1.50;;;;;;;7.15;50.91;97689.59;6197698;23;20017;-84
2023/03/28 10:01:25;;;;;;;3.10;1.80;;;;;;;7.23;50.00;97686.31;6197546;23;20021;-83
2023/03/28 10:03:55;;;;;;;4.50;1.38;;;;;;;7.30;49.33;97682.22;6196762;23;20045;-83
2023/03/28 10:06:27;;;;;;;3.20;1.05;;;;;;;7.27;48.48;97679.09;6197094;23;20040;-85
2023/03/28 10:09:09;;;;;;;7.00;1.40;;;;;;;7.34;47.11;97673.22;6197126;23;20492;-82
2023/03/28 10:11:47;;;;;;;2.83;1.05;;;;;;;7.54;49.49;97679.25;6196712;23;20028;-84
2023/03/28 10:14:35;;;;;;;5.32;1.33;;;;;;;7.89;49.72;97671.84;6195924;23;20017;-81
2023/03/28 10:17:06;;;;;;;3.33;1.42;;;;;;;8.20;47.35;97675.09;6196761;23;20017;-84
2023/03/28 10:19:35;;;;;;;3.55;1.08;;;;;;;8.51;49.18;97678.31;6197059;23;20045;-83
2023/03/28 10:22:07;;;;;;;5.57;1.50;;;;;;;8.85;44.77;97673.41;6196546;23;20411;-80
2023/03/28 10:24:36;;;;;;;3.47;0.93;;;;;;;9.14;45.31;97668.97;6197625;23;20024;-80
2023/03/28 10:27:13;;;;;;;2.65;1.00;;;;;;;9.41;42.11;97661.13;6197071;23;20051;-83
2023/03/28 10:29:41;;;;;;;3.80;1.45;;;;;;;9.57;46.65;97670.06;6196784;23;20021;-83
2023/03/28 10:32:12;;;;;;;1.60;0.90;;;;;;;9.55;47.43;97674.59;6197895;23;20080;-84
2023/03/28 10:34:40;;;;;;;2.45;0.88;;;;;;;9.41;43.30;97671.56;6198417;23;20350;-82
2023/03/28 10:37:24;;;;;;;4.03;1.15;;;;;;;9.26;40.19;97667.81;6198866;23;20047;-82
2023/03/28 10:39:59;;;;;;;3.50;1.13;;;;;;;9.26;44.98;97673.84;6199288;23;20069;-82
2023/03/28 10:42:27;;;;;;;3.90;1.05;;;;;;;9.46;45.21;97664.09;6198870;23;20021;-82
2023/03/28 10:45:01;;;;;;;3.38;1.65;;;;;;;9.51;41.93;97660.25;6199129;23;20017;-83
2023/03/28 10:47:30;;;;;;;5.25;1.95;;;;;;;9.39;44.43;97665.69;6198809;23;20381;-84
2023/03/28 10:49:58;;;;;;;4.13;1.40;;;;;;;9.20;43.15;97668.41;6197705;23;20529;-83
2023/03/28 10:52:35;;;;;;;2.15;1.00;;;;;;;8.97;43.23;97663.63;6197318;23;20478;-84
2023/03/28 10:55:10;;;;;;;4.88;1.40;;;;;;;8.81;41.72;97663.41;6197531;23;20096;-82
2023/03/28 10:57:47;;;;;;;7.97;1.50;;;;;;;8.73;40.69;97655.53;6197304;23;20018;-84
2023/03/28 11:00:20;;;;;;;9.27;1.88;;;;;;;8.73;41.31;97660.72;6196729;23;20365;-82
2023/03/28 11:03:09;;;;;;;5.88;1.50;;;;;;;8.84;42.27;97648.34;6195683;23;20025;-86
2023/03/28 11:05:44;;;;;;;3.75;1.00;;;;;;;9.18;44.99;97641.69;6196651;23;20032;-85
2023/03/28 11:08:39;;;;;;;1.83;1.17;;;;;;;9.68;49.18;97641.19;6195270;23;20021;-84
2023/03/28 11:11:27;;;;;;;1.80;0.88;;;;;;;10.13;44.56;97642.84;6197362;23;20025;-84
2023/03/28 11:14:01;;;;;;;2.97;0.90;;;;;;;10.51;46.75;97633.78;6197060;23;20073;-83
2023/03/28 11:16:41;;;;;;;1.45;1.20;;;;;;;10.77;46.18;97632.09;6199077;23;20021;-84
2023/03/28 11:19:15;;;;;;;2.00;1.30;;;;;;;10.99;41.26;97631.50;6199596;23;20025;-86
2023/03/28 11:21:52;;;;;;;2.85;1.38;;;;;;;11.02;37.77;97640.81;6198850;23;20013;-84
2023/03/28 11:24:32;;;;;;;2.92;1.45;;;;;;;10.93;37.34;97632.97;6199625;23;20079;-83
2023/03/28 11:27:07;;;;;;;3.38;1.10;;;;;;;10.90;39.06;97635.09;6199914;23;20013;-84
2023/03/28 11:29:48;;;;;;;3.70;1.42;;;;;;;10.76;37.73;97646.94;6198331;23;20009;-80
2023/03/28 11:32:21;;;;;;;2.33;1.35;;;;;;;10.68;37.89;97652.94;6198254;23;20462;-86
2023/03/28 11:35:01;;;;;;;4.20;1.42;;;;;;;10.54;40.07;97642.25;6198751;23;20013;-83
2023/03/28 11:37:34;;;;;;;3.17;2.20;;;;;;;10.35;38.45;97630.28;6199622;23;20430;-82
2023/03/28 11:40:13;;;;;;;6.18;2.55;;;;;;;10.29;37.69;97635.13;6198711;23;20108;-83
2023/03/28 11:42:47;;;;;;;2.35;1.45;;;;;;;10.27;38.54;97616.16;6198209;23;20021;-81
2023/03/28 11:45:26;;;;;;;2.45;1.20;;;;;;;10.33;43.48;97619.19;6197926;23;20501;-85
2023/03/28 11:48:19;;;;;;;2.65;1.30;;;;;;;10.47;38.96;97615.97;6198916;23;20014;-82
2023/03/28 11:50:53;;;;;;;2.30;1.20;;;;;;;10.60;38.18;97616.38;6199468;23;20048;-86
2023/03/28 11:53:26;;;;;;;5.65;1.85;;;;;;;10.71;37.38;97610.88;6198678;23;20024;-82
2023/03/28 11:56:03;;;;;;;3.72;2.08;;;;;;;10.72;38.25;97615.13;6198743;23;20025;-83
2023/03/28 11:58:35;;;;;;;3.05;1.40;;;;;;;10.63;36.84;97610.03;6197752;23;20029;-83
2023/03/28 12:01:06;;;;;;;5.68;1.52;;;;;;;10.53;38.17;97617.97;6197758;23;20481;-81
2023/03/28 12:03:54;;;;;;;3.53;1.75;;;;;;;10.46;37.82;97609.13;6197727;23;20024;-81